Time;durP1;ratioP1;P1;durP2;ratioP2;P2;SDS_P1;SDS_P2;PMS_P1;PMS_P2;Temp;Humidity;BMP_temperature;BMP_pressure;BME280_temperature;BME280_humidity;BME280_pressure;Samples;Min_cycle;Max_cycle;Signal;HPM_P1;HPM_P2
2021/09/16 00:00:12;;;;;;;0.55;0.20;;;15.70;85.30;;;;;;4855132;29;20072;-77
2021/09/16 00:02:40;;;;;;;4.15;0.25;;;15.70;85.30;;;;;;4871179;29;20068;-76
2021/09/16 00:05:09;;;;;;;1.00;0.30;;;15.70;85.50;;;;;;4857216;29;20061;-78
2021/09/16 00:07:36;;;;;;;1.92;0.43;;;15.60;85.50;;;;;;4860112;29;20056;-78
2021/09/16 00:10:07;;;;;;;2.45;0.25;;;15.60;85.60;;;;;;4844437;29;20077;-78
2021/09/16 00:12:34;;;;;;;1.00;0.30;;;15.60;85.70;;;;;;4876430;29;20047;-78
2021/09/16 00:15:01;;;;;;;1.38;0.30;;;15.50;85.80;;;;;;4853397;29;20055;-77
2021/09/16 00:17:28;;;;;;;0.32;0.20;;;15.50;85.80;;;;;;4859274;29;20139;-78
2021/09/16 00:19:56;;;;;;;1.85;0.30;;;15.50;85.90;;;;;;4859726;29;20073;-78
2021/09/16 00:22:23;;;;;;;0.88;0.20;;;15.50;85.90;;;;;;4873706;29;20085;-78
2021/09/16 00:24:50;;;;;;;2.30;0.17;;;15.40;86.00;;;;;;4859629;29;20056;-77
2021/09/16 00:27:18;;;;;;;0.70;0.20;;;15.40;86.10;;;;;;4873550;29;20077;-78
2021/09/16 00:29:44;;;;;;;0.65;0.20;;;15.40;86.20;;;;;;4845098;29;20402;-77
2021/09/16 00:32:12;;;;;;;2.45;0.40;;;15.40;86.30;;;;;;4874289;29;20558;-77
2021/09/16 00:34:38;;;;;;;0.70;0.20;;;15.30;86.40;;;;;;4830601;29;20049;-77
2021/09/16 00:37:06;;;;;;;0.98;0.20;;;15.30;86.40;;;;;;4840003;29;20049;-77
2021/09/16 00:39:33;;;;;;;1.38;0.30;;;15.30;86.60;;;;;;4877052;29;20137;-77
2021/09/16 00:42:00;;;;;;;0.82;0.20;;;15.20;86.60;;;;;;4875126;29;20120;-77
2021/09/16 00:44:27;;;;;;;0.63;0.20;;;15.20;86.70;;;;;;4858446;29;20053;-77
2021/09/16 00:46:54;;;;;;;2.78;0.20;;;15.20;86.80;;;;;;4873313;29;20458;-78
2021/09/16 00:49:21;;;;;;;1.98;0.20;;;15.20;86.90;;;;;;4859949;29;20105;-78
2021/09/16 00:51:48;;;;;;;0.60;0.20;;;15.10;86.80;;;;;;4860439;29;20045;-77
2021/09/16 00:54:17;;;;;;;0.43;0.15;;;15.10;86.90;;;;;;4862440;29;20045;-77
2021/09/16 00:56:48;;;;;;;0.75;0.20;;;15.10;86.90;;;;;;4850705;29;20439;-78
2021/09/16 00:59:19;;;;;;;0.50;0.17;;;15.10;87.00;;;;;;4873388;29;20037;-77
2021/09/16 01:01:47;;;;;;;0.87;0.20;;;15.20;87.00;;;;;;4874714;29;20057;-78
2021/09/16 01:04:14;;;;;;;0.95;0.30;;;15.20;86.90;;;;;;4827271;29;20148;-77
2021/09/16 01:06:42;;;;;;;1.17;0.30;;;15.30;86.70;;;;;;4859301;29;20458;-78
2021/09/16 01:09:12;;;;;;;0.50;0.20;;;15.40;86.70;;;;;;4856716;29;20049;-78
2021/09/16 01:11:39;;;;;;;2.15;0.30;;;15.40;86.60;;;;;;4873935;29;20042;-77
2021/09/16 01:14:10;;;;;;;0.40;0.30;;;15.40;86.60;;;;;;4844575;29;20041;-78
2021/09/16 01:16:37;;;;;;;1.83;0.30;;;15.40;86.50;;;;;;4844482;29;20064;-77
2021/09/16 01:19:04;;;;;;;0.80;0.30;;;15.40;86.60;;;;;;4852057;29;20144;-78
2021/09/16 01:21:31;;;;;;;0.45;0.20;;;15.40;86.60;;;;;;4873136;29;20409;-77
2021/09/16 01:23:58;;;;;;;2.03;0.40;;;15.40;86.60;;;;;;4860193;29;20048;-77
2021/09/16 01:26:25;;;;;;;1.88;0.30;;;15.40;86.70;;;;;;4847292;29;20073;-78
2021/09/16 01:28:51;;;;;;;2.38;0.20;;;15.40;86.70;;;;;;4843499;29;20517;-77
2021/09/16 01:31:36;;;;;;;0.60;0.17;;;15.30;86.80;;;;;;4873047;29;20140;-77
2021/09/16 01:34:08;;;;;;;0.50;0.20;;;15.30;86.90;;;;;;4875137;29;20582;-78
2021/09/16 01:36:37;;;;;;;1.85;0.25;;;15.20;87.10;;;;;;4844786;29;20041;-77
2021/09/16 01:39:07;;;;;;;1.92;0.20;;;15.20;87.20;;;;;;4870701;29;20045;-78
2021/09/16 01:41:34;;;;;;;3.17;0.30;;;15.10;87.30;;;;;;4869479;29;20144;-78
2021/09/16 01:44:01;;;;;;;1.05;0.10;;;15.10;87.40;;;;;;4874089;29;20072;-78
2021/09/16 01:46:29;;;;;;;0.57;0.10;;;15.00;87.40;;;;;;4858121;29;20117;-78
2021/09/16 01:49:00;;;;;;;0.35;0.10;;;15.10;87.60;;;;;;4858715;29;20140;-78
2021/09/16 01:51:27;;;;;;;1.65;0.10;;;15.00;87.70;;;;;;4854386;29;20101;-78
2021/09/16 01:53:54;;;;;;;1.52;0.15;;;15.00;87.80;;;;;;4859054;29;20037;-77
2021/09/16 01:56:21;;;;;;;0.22;0.10;;;14.90;87.80;;;;;;4859213;29;20057;-77
2021/09/16 01:58:48;;;;;;;0.10;0.08;;;15.00;88.00;;;;;;4827784;29;20437;-77
2021/09/16 02:01:16;;;;;;;0.40;0.17;;;14.90;87.90;;;;;;4858415;29;20130;-78
2021/09/16 02:03:43;;;;;;;1.55;0.65;;;14.90;88.00;;;;;;4873517;29;20512;-77
2021/09/16 02:06:10;;;;;;;0.85;0.20;;;14.90;88.00;;;;;;4873499;29;20041;-77
2021/09/16 02:08:37;;;;;;;2.88;0.20;;;14.90;88.00;;;;;;4858524;29;20053;-77
2021/09/16 02:11:04;;;;;;;2.22;0.20;;;14.90;88.10;;;;;;4853772;29;20056;-77
2021/09/16 02:13:31;;;;;;;2.05;0.20;;;14.90;88.10;;;;;;4853273;29;20073;-77
2021/09/16 02:15:58;;;;;;;1.63;0.40;;;14.90;88.70;;;;;;4872482;29;20041;-78
2021/09/16 02:18:25;;;;;;;0.63;0.30;;;14.90;88.20;;;;;;4839225;29;20062;-77
2021/09/16 02:20:52;;;;;;;1.25;0.40;;;14.90;88.20;;;;;;4855670;29;20553;-77
2021/09/16 02:23:19;;;;;;;0.82;0.30;;;14.80;88.30;;;;;;4869791;29;20113;-77
2021/09/16 02:25:46;;;;;;;2.75;0.40;;;14.90;88.30;;;;;;4870676;29;20057;-77
2021/09/16 02:28:13;;;;;;;1.27;0.30;;;14.90;88.20;;;;;;4872251;29;20045;-77
2021/09/16 02:30:42;;;;;;;1.65;0.30;;;15.00;88.20;;;;;;4857101;29;20061;-78
2021/09/16 02:33:09;;;;;;;0.90;0.15;;;15.00;88.20;;;;;;4859377;29;20044;-77
2021/09/16 02:35:37;;;;;;;0.57;0.20;;;15.00;88.10;;;;;;4878805;29;20049;-77
2021/09/16 02:38:04;;;;;;;4.18;0.22;;;15.10;88.10;;;;;;4845665;29;20079;-78
2021/09/16 02:40:31;;;;;;;0.88;0.20;;;15.10;88.00;;;;;;4830206;29;20045;-78
2021/09/16 02:42:58;;;;;;;0.60;0.22;;;15.10;87.90;;;;;;4861365;29;20073;-77
2021/09/16 02:45:25;;;;;;;3.88;0.25;;;15.20;88.50;;;;;;4875174;29;20507;-77
2021/09/16 02:47:52;;;;;;;2.85;0.30;;;15.20;87.80;;;;;;4876340;29;20101;-77
2021/09/16 02:50:19;;;;;;;2.25;0.20;;;15.30;87.80;;;;;;4857488;29;20061;-77
2021/09/16 02:52:46;;;;;;;1.30;0.22;;;15.30;87.70;;;;;;4876269;29;20342;-77
2021/09/16 02:55:18;;;;;;;0.93;0.32;;;15.40;87.70;;;;;;4878164;29;20442;-77
2021/09/16 02:57:46;;;;;;;2.58;0.57;;;15.40;87.60;;;;;;4855936;29;20046;-77
2021/09/16 03:00:14;;;;;;;0.60;0.30;;;15.40;87.50;;;;;;4878196;29;20521;-77
2021/09/16 03:02:41;;;;;;;1.67;0.40;;;15.40;87.50;;;;;;4861303;29;20045;-77
2021/09/16 03:05:09;;;;;;;0.60;0.30;;;15.40;87.50;;;;;;4863121;29;20037;-77
2021/09/16 03:07:36;;;;;;;0.60;0.30;;;15.40;87.50;;;;;;4862233;29;20065;-77
2021/09/16 03:10:05;;;;;;;1.70;0.30;;;15.50;87.50;;;;;;4828316;29;20100;-77
2021/09/16 03:12:32;;;;;;;0.63;0.30;;;15.50;87.50;;;;;;4861919;29;20049;-77
2021/09/16 03:14:59;;;;;;;0.88;0.40;;;15.50;87.50;;;;;;4861543;29;20064;-78
2021/09/16 03:17:26;;;;;;;0.63;0.17;;;15.60;88.10;;;;;;4862212;29;20047;-77
2021/09/16 03:19:53;;;;;;;1.17;0.30;;;15.60;87.50;;;;;;4830271;29;20045;-77
2021/09/16 03:22:20;;;;;;;1.45;0.28;;;15.60;87.40;;;;;;4845535;29;20140;-78
2021/09/16 03:24:47;;;;;;;7.35;0.50;;;15.70;87.40;;;;;;4859400;29;20049;-77
2021/09/16 03:27:14;;;;;;;1.75;0.10;;;15.60;87.30;;;;;;4860616;29;20159;-77
2021/09/16 03:29:41;;;;;;;1.25;0.28;;;15.70;87.40;;;;;;4877643;29;20112;-78
2021/09/16 03:32:08;;;;;;;1.60;0.22;;;15.60;87.40;;;;;;4860672;29;20090;-77
2021/09/16 03:34:35;;;;;;;1.17;0.13;;;15.60;87.40;;;;;;4857548;29;20466;-77
2021/09/16 03:37:02;;;;;;;0.98;0.20;;;15.60;87.50;;;;;;4843962;29;20514;-77
2021/09/16 03:39:29;;;;;;;0.47;0.10;;;15.60;87.60;;;;;;4877744;29;20056;-77
2021/09/16 03:41:56;;;;;;;0.90;0.20;;;15.70;88.20;;;;;;4878294;29;20517;-78
2021/09/16 03:44:23;;;;;;;1.70;0.20;;;15.60;87.60;;;;;;4860100;29;20082;-77
2021/09/16 03:46:53;;;;;;;0.40;0.20;;;15.70;87.70;;;;;;4844222;29;20065;-77
2021/09/16 03:49:20;;;;;;;1.27;0.20;;;15.70;87.70;;;;;;4846308;29;20562;-77
2021/09/16 03:51:47;;;;;;;1.80;0.35;;;15.60;87.70;;;;;;4876281;29;20075;-77
2021/09/16 03:54:14;;;;;;;0.80;0.25;;;15.60;87.80;;;;;;4872136;29;20057;-77
2021/09/16 03:56:41;;;;;;;1.25;0.40;;;15.50;88.00;;;;;;4874536;29;22310;-77
2021/09/16 03:59:09;;;;;;;1.42;0.50;;;15.40;88.10;;;;;;4845679;29;20045;-77
2021/09/16 04:01:35;;;;;;;1.80;0.40;;;15.40;88.30;;;;;;4859784;29;20124;-77
2021/09/16 04:04:03;;;;;;;1.80;0.65;;;15.30;88.50;;;;;;4858694;29;20044;-77
2021/09/16 04:06:29;;;;;;;1.77;0.40;;;15.20;88.70;;;;;;4829899;29;20053;-77
2021/09/16 04:08:56;;;;;;;1.10;0.40;;;15.20;88.80;;;;;;4875834;29;20048;-77
2021/09/16 04:11:23;;;;;;;1.15;0.32;;;15.20;88.90;;;;;;4843884;29;20056;-77
2021/09/16 04:13:50;;;;;;;1.35;0.30;;;15.20;89.00;;;;;;4828827;29;20045;-77
2021/09/16 04:16:17;;;;;;;1.50;0.50;;;15.20;89.20;;;;;;4827838;29;20105;-77
2021/09/16 04:18:44;;;;;;;1.35;0.30;;;15.20;89.20;;;;;;4877179;29;20132;-77
2021/09/16 04:21:11;;;;;;;1.33;0.43;;;15.20;89.20;;;;;;4839050;29;20041;-77
2021/09/16 04:23:38;;;;;;;1.00;0.30;;;15.20;89.30;;;;;;4861262;29;20405;-77
2021/09/16 04:26:05;;;;;;;0.70;0.40;;;15.20;89.30;;;;;;4877449;29;20409;-77
2021/09/16 04:28:32;;;;;;;0.60;0.30;;;15.20;89.40;;;;;;4842158;29;20041;-77
2021/09/16 04:31:00;;;;;;;0.55;0.20;;;15.20;89.40;;;;;;4855405;29;20041;-77
2021/09/16 04:33:26;;;;;;;1.10;0.30;;;15.30;89.50;;;;;;4845160;29;20101;-77
2021/09/16 04:35:53;;;;;;;1.65;0.20;;;15.30;89.40;;;;;;4838651;29;20458;-77
2021/09/16 04:38:20;;;;;;;1.55;0.30;;;15.30;89.40;;;;;;4839876;29;20101;-77
2021/09/16 04:40:48;;;;;;;1.42;0.30;;;15.30;89.40;;;;;;4838762;29;20116;-77
2021/09/16 04:43:15;;;;;;;1.33;0.30;;;15.30;89.40;;;;;;4875542;29;20147;-77
2021/09/16 04:45:42;;;;;;;1.75;0.30;;;15.40;89.50;;;;;;4857581;29;20089;-77
2021/09/16 04:48:09;;;;;;;0.95;0.20;;;15.40;89.50;;;;;;4840619;29;20069;-77
2021/09/16 04:50:36;;;;;;;1.27;0.20;;;15.40;89.60;;;;;;4876544;29;20045;-77
2021/09/16 04:53:03;;;;;;;1.75;0.40;;;15.40;89.50;;;;;;4844983;29;20037;-77
2021/09/16 04:55:30;;;;;;;1.75;0.38;;;15.40;89.50;;;;;;4841683;29;20474;-77
2021/09/16 04:57:57;;;;;;;1.40;0.25;;;15.50;89.60;;;;;;4859251;29;20044;-77
2021/09/16 05:00:25;;;;;;;0.73;0.20;;;15.50;89.50;;;;;;4813775;29;20136;-77
2021/09/16 05:02:51;;;;;;;1.45;0.15;;;15.50;89.50;;;;;;4830009;29;20045;-77
2021/09/16 05:05:19;;;;;;;1.52;0.30;;;15.50;89.40;;;;;;4856779;29;20083;-77
2021/09/16 05:07:46;;;;;;;0.20;0.10;;;15.50;89.50;;;;;;4855259;29;20051;-77
2021/09/16 05:10:15;;;;;;;0.57;0.17;;;15.60;89.50;;;;;;4874254;29;20074;-77
2021/09/16 05:12:42;;;;;;;2.90;0.30;;;15.50;89.50;;;;;;4857373;29;20060;-77
2021/09/16 05:15:10;;;;;;;0.85;0.30;;;15.50;89.50;;;;;;4843887;29;20048;-77
2021/09/16 05:17:37;;;;;;;0.90;0.25;;;15.50;89.50;;;;;;4858578;29;20067;-77
2021/09/16 05:20:05;;;;;;;1.35;0.20;;;15.60;89.60;;;;;;4858903;29;20045;-77
2021/09/16 05:22:32;;;;;;;2.00;0.20;;;15.60;89.60;;;;;;4840249;29;20045;-77
2021/09/16 05:25:00;;;;;;;1.55;0.38;;;15.60;89.60;;;;;;4858707;29;20048;-76
2021/09/16 05:27:27;;;;;;;1.77;0.30;;;15.60;89.60;;;;;;4837488;29;20143;-77
2021/09/16 05:29:54;;;;;;;2.90;0.28;;;15.60;89.60;;;;;;4828682;29;20409;-78
2021/09/16 05:32:22;;;;;;;1.20;0.20;;;15.60;89.60;;;;;;4856972;29;20053;-77
2021/09/16 05:34:49;;;;;;;0.43;0.15;;;15.60;89.60;;;;;;4877789;29;20048;-77
2021/09/16 05:37:16;;;;;;;2.22;0.30;;;15.60;89.60;;;;;;4873013;29;20127;-78
2021/09/16 05:39:43;;;;;;;1.40;0.30;;;15.60;89.60;;;;;;4844142;29;20819;-77
2021/09/16 05:42:10;;;;;;;0.88;0.30;;;15.60;89.60;;;;;;4828443;29;20041;-77
2021/09/16 05:44:37;;;;;;;0.25;0.20;;;15.60;89.70;;;;;;4872242;29;20044;-77
2021/09/16 05:47:05;;;;;;;2.00;0.15;;;15.60;89.70;;;;;;4856037;29;20454;-77
2021/09/16 05:49:32;;;;;;;1.38;0.30;;;15.60;89.70;;;;;;4858957;29;20105;-77
2021/09/16 05:51:59;;;;;;;1.15;0.40;;;15.60;90.10;;;;;;4843322;29;20056;-77
2021/09/16 05:54:26;;;;;;;1.42;0.25;;;15.60;89.60;;;;;;4854115;29;20048;-78
2021/09/16 05:56:54;;;;;;;2.35;0.40;;;15.60;89.60;;;;;;4841456;29;20410;-78
2021/09/16 05:59:24;;;;;;;4.20;0.30;;;15.60;89.60;;;;;;4857514;29;20105;-77
2021/09/16 06:01:51;;;;;;;3.25;0.30;;;15.60;89.60;;;;;;4840856;29;20038;-77
2021/09/16 06:04:18;;;;;;;1.40;0.30;;;15.60;89.50;;;;;;4870314;29;20076;-77
2021/09/16 06:06:46;;;;;;;4.10;0.75;;;15.60;89.60;;;;;;4875975;29;20045;-77
2021/09/16 06:09:13;;;;;;;0.98;0.20;;;15.60;89.60;;;;;;4861607;29;20076;-77
2021/09/16 06:11:40;;;;;;;1.55;0.20;;;15.60;89.70;;;;;;4857158;29;20557;-77
2021/09/16 06:14:07;;;;;;;1.08;0.20;;;15.50;89.70;;;;;;4873211;29;20525;-77
2021/09/16 06:16:34;;;;;;;2.75;0.30;;;15.50;89.80;;;;;;4875915;29;20052;-77
2021/09/16 06:19:02;;;;;;;0.50;0.13;;;15.50;90.00;;;;;;4873586;29;20131;-77
2021/09/16 06:21:29;;;;;;;2.50;0.40;;;15.40;90.00;;;;;;4857300;29;20060;-77
2021/09/16 06:23:56;;;;;;;0.80;0.20;;;15.40;90.00;;;;;;4851354;29;20170;-77
2021/09/16 06:26:24;;;;;;;2.10;0.20;;;15.30;90.10;;;;;;4842774;29;20113;-77
2021/09/16 06:28:51;;;;;;;2.53;0.30;;;15.30;90.10;;;;;;4829951;29;20120;-78
2021/09/16 06:31:18;;;;;;;0.90;0.40;;;15.30;90.40;;;;;;4858758;29;20064;-78
2021/09/16 06:33:45;;;;;;;0.77;0.30;;;15.30;90.10;;;;;;4876748;29;20459;-80
2021/09/16 06:36:12;;;;;;;0.80;0.35;;;15.30;90.10;;;;;;4865500;29;20502;-81
2021/09/16 06:38:40;;;;;;;2.10;0.28;;;15.30;90.20;;;;;;4848864;29;20124;-81
2021/09/16 06:41:07;;;;;;;0.55;0.20;;;15.30;90.20;;;;;;4849808;29;20478;-80
2021/09/16 06:43:34;;;;;;;1.50;0.28;;;15.20;90.20;;;;;;4848935;29;20052;-81
2021/09/16 06:46:02;;;;;;;0.70;0.30;;;15.20;90.20;;;;;;4865445;29;20048;-78
2021/09/16 06:48:29;;;;;;;1.13;0.30;;;15.20;90.20;;;;;;4853610;29;20106;-77
2021/09/16 06:50:56;;;;;;;1.55;0.65;;;15.20;90.20;;;;;;4827207;29;20072;-81
2021/09/16 06:53:24;;;;;;;1.45;0.20;;;15.20;90.20;;;;;;4858648;29;20381;-80
2021/09/16 06:55:51;;;;;;;2.25;0.30;;;15.30;90.20;;;;;;4845241;29;20065;-80
2021/09/16 06:58:18;;;;;;;1.95;0.25;;;15.30;90.20;;;;;;4816563;29;20050;-81
2021/09/16 07:00:45;;;;;;;2.78;0.40;;;15.40;90.10;;;;;;4830331;29;20105;-80
2021/09/16 07:03:12;;;;;;;2.00;0.30;;;15.40;90.10;;;;;;4845066;29;20049;-80
2021/09/16 07:05:40;;;;;;;1.10;0.30;;;15.50;90.00;;;;;;4848920;29;20041;-81
2021/09/16 07:08:07;;;;;;;2.05;0.30;;;15.60;90.00;;;;;;4860986;29;20111;-83
2021/09/16 07:10:35;;;;;;;0.70;0.30;;;15.70;89.90;;;;;;4844610;29;20064;-81
2021/09/16 07:13:02;;;;;;;1.65;0.47;;;15.70;89.60;;;;;;4826712;29;20054;-80
2021/09/16 07:15:29;;;;;;;1.70;0.40;;;15.80;89.50;;;;;;4816008;29;20060;-82
2021/09/16 07:17:56;;;;;;;1.85;0.30;;;15.90;89.30;;;;;;4828367;29;20042;-82
2021/09/16 07:20:24;;;;;;;1.38;0.50;;;15.90;89.30;;;;;;4819369;29;20052;-81
2021/09/16 07:22:51;;;;;;;1.65;0.38;;;16.00;89.10;;;;;;4829826;29;20045;-82
2021/09/16 07:25:18;;;;;;;1.80;0.50;;;16.10;89.00;;;;;;4860762;29;20068;-81
2021/09/16 07:27:47;;;;;;;2.80;0.50;;;16.20;88.90;;;;;;4845459;29;20064;-81
2021/09/16 07:30:15;;;;;;;2.47;0.50;;;16.20;88.70;;;;;;4835331;29;20076;-81
2021/09/16 07:32:42;;;;;;;4.57;0.60;;;16.30;88.70;;;;;;4845454;29;20046;-81
2021/09/16 07:35:10;;;;;;;3.80;0.70;;;16.40;88.60;;;;;;4855552;29;20042;-82
2021/09/16 07:37:38;;;;;;;1.25;0.55;;;16.40;88.50;;;;;;4845931;29;20041;-81
2021/09/16 07:40:08;;;;;;;1.02;0.40;;;16.50;88.50;;;;;;4829504;29;20041;-80
2021/09/16 07:42:38;;;;;;;0.60;0.30;;;16.60;88.40;;;;;;4856831;29;20347;-82
2021/09/16 07:45:07;;;;;;;2.05;0.50;;;16.70;88.30;;;;;;4845186;29;20045;-81
2021/09/16 07:47:34;;;;;;;0.60;0.30;;;16.80;88.20;;;;;;4826192;29;20046;-81
2021/09/16 07:50:03;;;;;;;2.67;0.50;;;16.90;88.10;;;;;;4809136;29;20073;-81
2021/09/16 07:52:30;;;;;;;3.38;0.60;;;17.00;87.90;;;;;;4824257;29;20046;-81
2021/09/16 07:54:57;;;;;;;1.98;0.47;;;17.10;87.70;;;;;;4824024;29;20479;-81
2021/09/16 07:57:25;;;;;;;3.50;0.50;;;17.20;88.00;;;;;;4825198;29;20601;-81
2021/09/16 07:59:52;;;;;;;1.85;0.30;;;17.30;87.20;;;;;;4824894;29;20121;-81
2021/09/16 08:02:19;;;;;;;0.90;0.30;;;17.40;87.00;;;;;;4809877;29;20133;-82
2021/09/16 08:04:47;;;;;;;2.83;0.40;;;17.60;86.90;;;;;;4840779;29;20117;-82
2021/09/16 08:07:14;;;;;;;2.20;0.55;;;17.60;86.70;;;;;;4795256;29;20149;-79
2021/09/16 08:09:41;;;;;;;1.90;0.20;;;17.70;86.50;;;;;;4822841;29;20057;-79
2021/09/16 08:12:08;;;;;;;0.95;0.35;;;17.80;86.50;;;;;;4841392;29;20054;-76
2021/09/16 08:14:36;;;;;;;2.20;0.35;;;17.90;86.20;;;;;;4815478;29;20054;-76
2021/09/16 08:17:03;;;;;;;1.05;0.40;;;17.90;86.00;;;;;;4810947;29;20052;-79
2021/09/16 08:19:31;;;;;;;2.13;0.52;;;17.80;86.00;;;;;;4824902;29;20050;-81
2021/09/16 08:22:01;;;;;;;1.65;0.40;;;17.70;85.90;;;;;;4799302;29;20046;-81
2021/09/16 08:24:28;;;;;;;3.72;0.60;;;17.60;86.50;;;;;;4810381;29;20109;-81
2021/09/16 08:27:16;;;;;;;3.13;0.47;;;17.60;86.00;;;;;;4817137;29;20065;-80
2021/09/16 08:29:45;;;;;;;0.60;0.30;;;17.60;85.80;;;;;;4824029;29;20483;-80
2021/09/16 08:32:12;;;;;;;1.60;0.50;;;17.60;85.90;;;;;;4807729;29;20078;-80
2021/09/16 08:34:40;;;;;;;1.65;0.30;;;17.60;85.90;;;;;;4834741;29;20057;-80
2021/09/16 08:37:07;;;;;;;3.63;0.50;;;17.70;85.80;;;;;;4794938;29;20034;-80
2021/09/16 08:39:34;;;;;;;1.73;0.30;;;17.70;85.60;;;;;;4825210;29;20084;-80
2021/09/16 08:42:02;;;;;;;3.45;0.30;;;17.80;85.50;;;;;;4824546;29;20118;-81
2021/09/16 08:44:30;;;;;;;2.15;0.30;;;17.80;84.90;;;;;;4824214;29;20057;-80
2021/09/16 08:46:58;;;;;;;1.40;0.25;;;17.90;84.90;;;;;;4839054;29;20042;-80
2021/09/16 08:49:25;;;;;;;3.22;0.38;;;18.00;84.60;;;;;;4834009;29;20064;-80
2021/09/16 08:51:53;;;;;;;1.58;0.40;;;18.10;84.40;;;;;;4841528;29;21105;-80
2021/09/16 08:54:21;;;;;;;1.27;0.30;;;18.20;84.50;;;;;;4838081;29;20053;-80
2021/09/16 08:56:49;;;;;;;2.45;0.30;;;18.20;84.30;;;;;;4834474;29;20081;-81
2021/09/16 08:59:16;;;;;;;1.17;0.20;;;18.30;84.20;;;;;;4835470;29;20051;-80
2021/09/16 09:01:47;;;;;;;0.73;0.30;;;18.30;83.90;;;;;;4825379;29;20038;-80
2021/09/16 09:04:17;;;;;;;2.70;0.38;;;18.40;83.70;;;;;;4809926;29;20164;-81
2021/09/16 09:06:44;;;;;;;1.88;0.30;;;18.50;83.40;;;;;;4823122;29;20648;-78
2021/09/16 09:09:16;;;;;;;2.90;0.40;;;18.60;82.30;;;;;;4807630;29;20037;-82
2021/09/16 09:12:28;;;;;;;2.50;0.30;;;18.60;82.20;;;;;;4823099;29;20062;-82
2021/09/16 09:14:55;;;;;;;0.53;0.23;;;18.60;82.50;;;;;;4836844;29;20096;-81
2021/09/16 09:17:31;;;;;;;2.08;0.60;;;18.60;82.40;;;;;;4816350;29;20079;-82
2021/09/16 09:20:08;;;;;;;1.67;0.50;;;18.80;81.60;;;;;;4839397;29;20521;-82
2021/09/16 09:22:39;;;;;;;3.20;0.47;;;18.90;81.30;;;;;;4822257;29;20498;-82
2021/09/16 09:25:11;;;;;;;1.23;0.50;;;19.00;81.10;;;;;;4825748;29;20050;-81
2021/09/16 09:27:59;;;;;;;2.17;0.30;;;19.10;80.60;;;;;;4824258;29;20049;-81
2021/09/16 09:30:30;;;;;;;1.83;0.60;;;19.20;80.60;;;;;;4821776;29;20478;-80
2021/09/16 09:33:00;;;;;;;2.25;0.50;;;19.20;80.10;;;;;;4819913;29;20046;-78
2021/09/16 09:35:30;;;;;;;1.70;0.50;;;19.10;79.70;;;;;;4824310;29;20062;-79
2021/09/16 09:38:00;;;;;;;1.90;0.30;;;19.00;80.00;;;;;;4822734;29;20045;-83
2021/09/16 09:40:33;;;;;;;2.00;0.55;;;19.00;80.00;;;;;;4823626;29;20102;-83
2021/09/16 09:43:32;;;;;;;1.95;0.40;;;19.00;79.80;;;;;;4836710;29;20046;-82
2021/09/16 09:46:02;;;;;;;1.00;0.40;;;19.00;79.80;;;;;;4837968;29;20056;-83
2021/09/16 09:48:31;;;;;;;0.65;0.30;;;19.00;80.00;;;;;;4831992;29;20054;-82
2021/09/16 09:50:59;;;;;;;0.90;0.30;;;19.00;79.90;;;;;;4844468;29;20140;-83
2021/09/16 09:53:35;;;;;;;0.95;0.32;;;19.00;79.80;;;;;;4831689;29;20053;-82
2021/09/16 09:56:18;;;;;;;3.25;0.35;;;19.10;79.90;;;;;;4832791;29;20402;-79
2021/09/16 09:58:46;;;;;;;2.00;0.40;;;19.20;79.20;;;;;;4829141;29;20052;-80
2021/09/16 10:01:35;;;;;;;3.50;0.47;;;19.30;79.10;;;;;;4840444;29;20050;-79
2021/09/16 10:04:26;;;;;;;1.38;0.40;;;19.40;78.60;;;;;;4849800;29;20447;-79
2021/09/16 10:07:00;;;;;;;2.05;0.57;;;19.40;78.20;;;;;;4841958;29;20094;-79
2021/09/16 10:09:27;;;;;;;0.95;0.30;;;19.40;78.10;;;;;;4856446;29;20102;-81
2021/09/16 10:11:58;;;;;;;3.53;0.50;;;19.50;77.80;;;;;;4842565;29;20046;-78
2021/09/16 10:14:26;;;;;;;1.67;0.40;;;19.60;76.70;;;;;;4857762;29;20094;-81
2021/09/16 10:16:53;;;;;;;2.13;0.60;;;19.70;76.70;;;;;;4841836;29;20045;-79
2021/09/16 10:19:20;;;;;;;2.28;0.47;;;19.70;76.70;;;;;;4812419;29;20052;-79
2021/09/16 10:21:48;;;;;;;1.98;0.50;;;19.70;76.30;;;;;;4839913;29;20034;-79
2021/09/16 10:24:17;;;;;;;0.52;0.30;;;19.80;76.40;;;;;;4824297;29;20049;-79
2021/09/16 10:26:50;;;;;;;1.30;0.38;;;19.90;76.60;;;;;;4839749;29;20460;-79
2021/09/16 10:29:27;;;;;;;0.77;0.30;;;19.90;76.50;;;;;;4827500;29;20145;-79
2021/09/16 10:32:08;;;;;;;2.05;0.52;;;19.90;76.00;;;;;;4848267;29;20057;-79
2021/09/16 10:35:04;;;;;;;1.90;0.45;;;19.70;75.90;;;;;;4857038;29;20415;-79
2021/09/16 10:37:36;;;;;;;0.88;0.30;;;19.70;76.00;;;;;;4816030;29;20054;-82
2021/09/16 10:40:20;;;;;;;0.82;0.30;;;19.70;76.40;;;;;;4840847;29;20054;-83
2021/09/16 10:42:59;;;;;;;2.58;0.30;;;19.90;76.20;;;;;;4856198;29;20517;-82
2021/09/16 10:45:33;;;;;;;1.67;0.40;;;19.90;75.90;;;;;;4854573;29;20046;-81
2021/09/16 10:48:27;;;;;;;2.97;0.60;;;20.00;74.50;;;;;;4856713;29;20041;-81
2021/09/16 10:50:56;;;;;;;3.00;0.60;;;20.10;74.10;;;;;;4825440;29;20076;-81
2021/09/16 10:53:46;;;;;;;1.35;0.50;;;20.10;73.10;;;;;;4858864;29;20057;-82
2021/09/16 10:56:31;;;;;;;1.50;0.40;;;19.90;73.40;;;;;;4843611;29;20099;-81
2021/09/16 10:58:59;;;;;;;1.63;0.45;;;19.80;73.50;;;;;;4827057;29;20129;-80
2021/09/16 11:01:55;;;;;;;0.82;0.40;;;19.80;74.00;;;;;;4821427;29;20455;-81
2021/09/16 11:04:23;;;;;;;2.95;0.80;;;19.90;73.80;;;;;;4844087;29;20052;-79
2021/09/16 11:06:59;;;;;;;2.90;0.80;;;20.00;73.10;;;;;;4819883;29;20037;-80
2021/09/16 11:09:38;;;;;;;1.50;0.40;;;20.20;72.80;;;;;;4876940;29;20121;-80
2021/09/16 11:12:05;;;;;;;3.95;0.52;;;20.40;73.10;;;;;;4846032;29;20505;-80
2021/09/16 11:14:40;;;;;;;2.42;0.60;;;20.40;71.40;;;;;;4833660;29;20053;-75
2021/09/16 11:17:10;;;;;;;1.85;0.60;;;20.50;70.40;;;;;;4877806;29;20051;-75
2021/09/16 11:19:50;;;;;;;1.25;0.50;;;20.60;70.10;;;;;;4861907;29;20072;-81
2021/09/16 11:22:24;;;;;;;1.15;0.60;;;20.70;69.90;;;;;;4837987;29;20455;-80
2021/09/16 11:24:56;;;;;;;1.60;0.50;;;20.80;69.70;;;;;;4849569;29;20152;-79
2021/09/16 11:27:32;;;;;;;1.23;0.30;;;20.90;69.80;;;;;;4864654;29;20053;-79
2021/09/16 11:30:02;;;;;;;1.98;0.40;;;20.90;69.90;;;;;;4862179;29;20053;-79
2021/09/16 11:32:37;;;;;;;2.20;0.52;;;20.90;69.60;;;;;;4864365;29;20053;-77
2021/09/16 11:35:16;;;;;;;2.20;0.43;;;20.70;69.40;;;;;;4878266;29;20131;-78
2021/09/16 11:37:51;;;;;;;2.13;0.60;;;20.60;69.50;;;;;;4875937;29;20114;-79
2021/09/16 11:40:24;;;;;;;0.98;0.40;;;20.50;70.00;;;;;;4873047;29;20144;-79
2021/09/16 11:43:00;;;;;;;1.13;0.30;;;20.40;70.50;;;;;;4862178;29;20044;-79
2021/09/16 11:45:32;;;;;;;0.80;0.43;;;20.40;71.00;;;;;;4841309;29;20049;-76
2021/09/16 11:48:26;;;;;;;1.80;0.50;;;20.40;71.00;;;;;;4863880;29;20064;-77
2021/09/16 11:51:02;;;;;;;0.75;0.30;;;20.50;71.00;;;;;;4876403;29;20108;-77
2021/09/16 11:53:34;;;;;;;1.10;0.40;;;20.60;71.00;;;;;;4876122;29;20072;-77
2021/09/16 11:56:05;;;;;;;1.80;0.45;;;20.70;70.50;;;;;;4875397;29;20072;-83
2021/09/16 11:58:35;;;;;;;1.17;0.30;;;20.70;70.50;;;;;;4845235;29;20045;-84
2021/09/16 12:01:17;;;;;;;1.00;0.47;;;20.80;70.70;;;;;;4859374;29;20105;-84
2021/09/16 12:03:49;;;;;;;;;;;20.70;70.80;;;;;;4862584;29;20049;-80
2021/09/16 12:06:19;;;;;;;2.65;0.40;;;20.60;71.20;;;;;;4842675;29;19928;-80
2021/09/16 12:08:48;;;;;;;1.60;0.40;;;20.50;71.20;;;;;;4857855;29;20419;-79
2021/09/16 12:11:27;;;;;;;1.50;0.60;;;20.60;70.70;;;;;;4858970;29;20045;-76
2021/09/16 12:13:57;;;;;;;0.93;0.40;;;20.80;70.70;;;;;;4872147;29;20047;-74
2021/09/16 12:16:33;;;;;;;0.60;0.30;;;20.90;70.50;;;;;;4873022;29;20041;-75
2021/09/16 12:19:11;;;;;;;0.75;0.35;;;20.90;70.10;;;;;;4872387;29;20066;-75
2021/09/16 12:21:40;;;;;;;0.63;0.20;;;20.80;70.30;;;;;;4872187;29;20588;-75
2021/09/16 12:24:14;;;;;;;1.15;0.20;;;20.70;70.70;;;;;;4858400;29;20487;-75
2021/09/16 12:26:47;;;;;;;0.95;0.20;;;20.70;70.90;;;;;;4857197;29;20139;-75
2021/09/16 12:29:23;;;;;;;1.70;0.40;;;20.70;71.10;;;;;;4842496;29;20113;-75
2021/09/16 12:31:56;;;;;;;1.40;0.30;;;20.60;70.60;;;;;;4872071;29;20193;-75
2021/09/16 12:34:31;;;;;;;1.25;0.20;;;20.60;70.80;;;;;;4856750;29;20105;-75
2021/09/16 12:37:07;;;;;;;2.00;0.30;;;20.60;70.80;;;;;;4873261;29;20048;-75
2021/09/16 12:39:51;;;;;;;0.93;0.50;;;20.60;71.00;;;;;;4873436;29;20542;-74
2021/09/16 12:42:30;;;;;;;1.30;0.32;;;20.70;70.90;;;;;;4875952;29;20036;-75
2021/09/16 12:45:09;;;;;;;1.00;0.30;;;20.80;70.70;;;;;;4876801;29;20037;-75
2021/09/16 12:47:49;;;;;;;1.33;0.20;;;21.00;70.60;;;;;;4875054;29;20051;-75
2021/09/16 12:50:17;;;;;;;0.65;0.30;;;21.10;70.40;;;;;;4855992;29;20056;-75
2021/09/16 12:52:45;;;;;;;3.08;0.40;;;21.10;70.20;;;;;;4857650;29;20048;-75
2021/09/16 12:55:14;;;;;;;1.27;0.20;;;21.10;70.20;;;;;;4873295;29;20056;-74
2021/09/16 12:57:43;;;;;;;0.73;0.30;;;21.30;70.00;;;;;;4873817;29;20029;-75
2021/09/16 13:00:11;;;;;;;1.17;0.30;;;21.30;69.90;;;;;;4856905;29;20045;-75